Latest Weather Observations for Mount Isa

IDQ60801

Issued at 7:05 pm EST Tuesday 22 July 2014 (issued every 30 minutes, with the page automatically refreshed every 10 minutes)

About weather observations | Map of weather stations | Latest weather observations for QLD | Other Formats
Station Details ID: 029127 Name: MOUNT ISA AERO Lat: -20.68 Lon: 139.49 Height: 340.3 m
Data from the previous 72 hours. | See also: Recent months at Mount Isa
Date/Time
EST
Temp
°C
App
Temp
°C
Dew
Point
Rel
Hum
%
Delta-T
°C
Wind Press
QNH
hPa
Press
MSL
hPa
Rain
since 9 am
mm
Dir
 
Spd
km/h
Gust
km/h
Spd
kts
Gust
kts
22/07:00pm 16.0 12.6 -5.0 23 8.2 SE 4 7 2 4 1016.6 - 0.0
22/06:54pm 16.6 13.0 -3.7 24 8.2 SSE 6 9 3 5 1016.6 - 0.0
22/06:30pm 21.6 17.3 -5.1 16 11.0 SE 9 11 5 6 1016.3 - 0.0
22/06:00pm 24.4 19.5 -11.7 8 13.5 ESE 9 22 5 12 1016.3 1015.7 0.0
22/05:30pm 25.6 19.8 -15.2 6 14.5 SSE 13 30 7 16 1016.3 - 0.0
22/05:00pm 26.0 20.7 -12.2 7 14.4 SSE 11 19 6 10 1016.2 - 0.0
22/04:30pm 26.0 20.1 -16.1 5 14.8 SSE 13 20 7 11 1016.2 - 0.0
22/04:00pm 26.5 20.5 -11.6 7 14.6 E 15 20 8 11 1016.2 - 0.0
22/03:30pm 26.4 20.8 -10.5 8 14.4 SE 13 19 7 10 1016.4 - 0.0
22/03:00pm 26.2 20.4 -14.0 6 14.7 SSE 13 19 7 10 1016.6 1016.0 0.0
22/02:30pm 25.6 19.1 -13.2 7 14.3 ESE 17 22 9 12 1017.0 - 0.0
22/02:00pm 25.6 19.5 -13.3 7 14.3 SE 15 20 8 11 1017.5 - 0.0
22/01:30pm 24.9 18.9 -11.3 8 13.7 E 15 22 8 12 1018.0 - 0.0
22/01:00pm 24.1 18.2 -9.3 10 13.0 ESE 15 24 8 13 1018.6 - 0.0
22/12:30pm 24.1 17.8 -10.7 9 13.2 SE 17 24 9 13 1019.2 - 0.0
22/12:00pm 23.9 17.1 -12.4 8 13.3 ESE 19 24 10 13 1019.8 1019.3 0.0
22/11:30am 23.2 16.1 -13.8 7 13.1 ESE 20 28 11 15 1020.5 - 0.0
22/11:00am 22.6 15.4 -15.9 6 13.0 SE 20 32 11 17 1020.9 - 0.0
22/10:30am 21.8 14.3 -13.9 8 12.4 SE 22 32 12 17 1021.1 - 0.0
22/10:00am 20.7 13.9 -12.6 9 11.7 SSE 19 26 10 14 1021.3 - 0.0
22/09:30am 18.3 12.9 -8.8 15 10.0 S 13 17 7 9 1021.2 - 0.0
22/09:00am 16.6 10.9 -7.7 18 9.0 S 15 17 8 9 1021.1 1020.5 0.0
22/08:30am 15.0 10.0 -8.0 19 8.3 S 11 15 6 8 1020.8 - 0.0
22/08:00am 12.4 8.3 -6.3 26 6.8 SSE 7 11 4 6 1020.5 - 0.0
22/07:50am 9.9 5.3 -8.2 27 6.1 S 9 11 5 6 1020.5 - 0.0
22/07:30am 3.9 -0.5 -5.4 50 3.1 S 9 11 5 6 1020.1 - 0.0
22/07:00am 4.0 -0.3 -4.5 54 2.9 S 9 9 5 5 1020.0 - 0.0
22/06:30am 3.6 0.7 -4.3 56 2.7 SSW 2 7 1 4 1019.8 - 0.0
22/06:00am 4.1 -0.6 -5.1 51 3.1 S 11 13 6 7 1019.7 1019.2 0.0
22/05:30am 5.4 1.5 -4.7 48 3.5 SSE 7 9 4 5 1019.6 - 0.0
22/05:00am 6.5 2.3 -3.8 48 3.7 S 9 9 5 5 1019.6 - 0.0
22/04:30am 6.6 2.3 -4.4 45 3.9 SSE 9 9 5 5 1019.9 - 0.0
22/04:00am 8.9 5.1 -3.4 42 4.6 SSE 7 11 4 6 1020.0 - 0.0
22/03:30am 8.3 5.8 -3.7 42 4.4 CALM 0 0 0 0 1020.2 - 0.0
22/03:00am 8.2 4.5 -4.2 41 4.5 SSW 6 9 3 5 1020.2 1019.7 0.0
22/02:30am 7.1 3.0 -2.9 49 3.7 SSW 9 9 5 5 1020.3 - 0.0
22/02:00am 6.8 4.2 -4.5 44 4.0 CALM 0 0 0 0 1020.2 - 0.0
22/01:30am 7.3 3.5 -5.3 40 4.4 S 6 7 3 4 1020.3 - 0.0
22/01:00am 7.8 3.8 -5.7 38 4.7 S 7 9 4 5 1020.5 - 0.0
22/12:30am 7.7 3.4 -5.0 40 4.5 S 9 11 5 6 1020.6 - 0.0
22/12:00am 8.3 3.9 -5.7 36 4.9 SSE 9 9 5 5 1020.7 1020.1 0.0
 
Date/Time
EST
Temp
°C
App
Temp
°C
Dew
Point
Rel
Hum
%
Delta-T
°C
Wind Press
QNH
hPa
Press
MSL
hPa
Rain
since 9 am
mm
Dir
 
Spd
km/h
Gust
km/h
Spd
kts
Gust
kts
21/11:30pm 8.7 3.9 -6.3 34 5.2 S 11 13 6 7 1020.8 - 0.0
21/11:00pm 9.0 3.8 -5.7 35 5.2 SSE 13 13 7 7 1020.9 - 0.0
21/10:30pm 9.3 5.0 -4.8 36 5.1 S 9 11 5 6 1020.9 - 0.0
21/10:00pm 9.7 5.1 -3.7 38 5.0 S 11 13 6 7 1020.8 - 0.0
21/09:30pm 10.8 6.1 -5.0 32 5.8 S 11 11 6 6 1020.7 - 0.0
21/09:00pm 12.4 8.4 -5.4 28 6.6 SSE 7 9 4 5 1020.5 1019.9 0.0
21/08:30pm 13.4 9.4 -2.3 33 6.3 S 9 9 5 5 1020.5 - 0.0
21/08:00pm 16.5 12.2 -4.9 22 8.4 S 9 11 5 6 1020.1 - 0.0
21/07:30pm 20.4 15.2 -6.3 16 10.6 SSE 13 15 7 8 1019.8 - 0.0
21/07:00pm 21.4 15.7 -7.4 14 11.3 SSE 15 19 8 10 1019.4 - 0.0
21/06:30pm 22.5 16.3 -8.8 11 12.1 SSE 17 20 9 11 1018.9 - 0.0
21/06:00pm 23.9 17.0 -10.7 9 13.1 SSE 20 26 11 14 1018.5 1017.9 0.0
21/05:30pm 25.0 18.2 -12.5 7 13.9 SSE 19 26 10 14 1018.2 - 0.0
21/05:00pm 25.5 18.4 -12.9 7 14.2 S 20 26 11 14 1017.9 - 0.0
21/04:30pm 26.1 19.8 -15.7 5 14.8 SSE 15 19 8 10 1017.9 - 0.0
21/04:00pm 26.2 19.6 -15.1 5 14.8 SE 17 24 9 13 1017.8 - 0.0
21/03:30pm 26.2 19.9 -17.4 5 15.0 SSE 15 24 8 13 1017.8 - 0.0
21/03:00pm 25.8 19.1 -17.5 5 14.8 S 17 26 9 14 1017.9 1017.3 0.0
21/02:30pm 25.4 18.4 -15.3 6 14.4 S 19 28 10 15 1018.1 - 0.0
21/02:00pm 25.8 18.6 -18.9 4 14.9 S 19 30 10 16 1018.5 - 0.0
21/01:30pm 25.8 18.9 -22.1 3 15.1 SSE 17 22 9 12 1018.9 - 0.0
21/01:00pm 25.1 18.2 -21.4 3 14.7 SSE 17 30 9 16 1019.4 - 0.0
21/12:30pm 24.1 19.3 -16.2 6 13.8 SW 7 19 4 10 1019.9 - 0.0
21/12:00pm 23.2 18.1 -15.8 6 13.3 E 9 13 5 7 1020.1 1019.6 0.0
21/11:30am 23.2 18.1 -14.8 7 13.2 ESE 9 15 5 8 1020.3 - 0.0
21/11:00am 22.0 16.1 -17.0 6 12.8 ESE 13 15 7 8 1020.9 - 0.0
21/10:30am 21.4 15.1 -16.9 6 12.5 ESE 15 19 8 10 1021.2 - 0.0
21/10:00am 19.4 15.0 -10.6 12 10.8 SE 7 11 4 6 1021.2 - 0.0
21/09:30am 17.4 13.1 -9.0 15 9.6 S 7 9 4 5 1021.3 - 0.0
21/09:00am 14.6 10.4 -7.9 20 8.1 SSE 7 9 4 5 1021.3 1020.7 0.0
21/08:31am 11.5 8.5 -5.0 31 6.1 E 2 7 1 4 1021.1 - 0.0
21/08:00am 6.1 3.3 -7.4 37 4.4 CALM 0 0 0 0 1020.8 - 0.0
21/07:30am 1.8 - - - - CALM 0 4 0 2 1020.5 - 0.0
21/07:00am 2.8 - - - - CALM 0 0 0 0 1020.1 - 0.0
21/06:30am 2.0 - - - - SSE 6 7 3 4 1019.7 - 0.0
21/06:00am 2.3 - - - - CALM 0 0 0 0 1019.6 1019.1 0.0
21/05:30am 2.8 - - - - CALM 0 0 0 0 1019.4 - 0.0
21/05:00am 3.0 - - - - S 2 6 1 3 1019.4 - 0.0
21/04:30am 2.4 - - - - CALM 0 0 0 0 1019.4 - 0.0
21/04:00am 3.2 - - - - S 7 9 4 5 1019.2 - 0.0
21/03:30am 3.7 - - - - CALM 0 0 0 0 1019.3 - 0.0
21/03:00am 3.8 - - - - CALM 0 0 0 0 1019.3 1018.7 0.0
21/02:30am 3.8 - - - - CALM 0 0 0 0 1019.4 - 0.0
21/02:00am 4.8 1.0 -9.3 35 4.3 N 4 7 2 4 1019.5 - 0.0
21/01:30am 4.4 0.4 -8.1 40 3.9 N 6 7 3 4 1019.4 - 0.0
21/01:00am 4.9 2.0 -8.1 38 4.1 CALM 0 0 0 0 1019.4 - 0.0
21/12:30am 5.7 2.7 -9.1 33 4.6 CALM 0 0 0 0 1019.5 - 0.0
21/12:00am 8.5 4.3 -8.1 30 5.5 SSE 7 7 4 4 1019.5 1018.9 0.0
 
Date/Time
EST
Temp
°C
App
Temp
°C
Dew
Point
Rel
Hum
%
Delta-T
°C
Wind Press
QNH
hPa
Press
MSL
hPa
Rain
since 9 am
mm
Dir
 
Spd
km/h
Gust
km/h
Spd
kts
Gust
kts
20/11:44pm 9.7 5.6 -8.6 26 6.1 SE 6 7 3 4 1019.6 - 0.0
20/11:30pm 14.8 10.2 -13.9 12 9.1 SE 7 7 4 4 1019.5 - 0.0
20/11:15pm 13.6 9.9 -15.0 12 8.7 S 2 7 1 4 1019.5 - 0.0
20/11:00pm 8.3 5.4 -7.5 32 5.3 CALM 0 2 0 1 1019.5 - 0.0
20/10:30pm 7.1 4.2 -7.9 33 4.9 CALM 0 6 0 3 1019.6 - 0.0
20/10:00pm 7.8 4.9 -8.5 30 5.3 CALM 0 0 0 0 1019.8 - 0.0
20/09:30pm 8.2 4.1 -8.7 29 5.5 WSW 6 7 3 4 1019.8 - 0.0
20/09:00pm 8.5 5.0 -6.6 33 5.2 SSW 4 9 2 5 1019.8 1019.3 0.0
20/08:30pm 9.6 6.5 -10.0 24 6.3 CALM 0 0 0 0 1019.5 - 0.0
20/08:00pm 10.5 7.2 -8.4 25 6.4 S 2 6 1 3 1019.0 - 0.0
20/07:30pm 12.0 8.0 -7.2 25 6.8 S 6 7 3 4 1018.6 - 0.0
20/07:00pm 14.2 10.1 -6.2 24 7.6 S 7 9 4 5 1018.2 - 0.0
20/06:30pm 18.0 13.9 -2.9 24 8.7 S 9 9 5 5 1017.9 - 0.0
20/06:00pm 22.8 18.4 -6.0 14 11.8 S 9 11 5 6 1017.6 1017.0 0.0
20/05:30pm 24.0 19.0 -13.6 7 13.5 S 9 13 5 7 1017.4 - 0.0
20/05:00pm 24.3 19.5 -17.2 5 14.0 SSE 7 11 4 6 1017.2 - 0.0
20/04:30pm 24.7 20.3 -13.9 7 13.9 W 6 11 3 6 1017.2 - 0.0
20/04:00pm 25.3 20.9 -12.9 7 14.1 S 6 13 3 7 1017.4 - 0.0
20/03:30pm 24.6 20.2 -13.5 7 13.8 W 6 9 3 5 1017.4 - 0.0
20/03:00pm 23.5 18.6 -12.3 8 13.1 E 9 17 5 9 1017.5 1016.9 0.0
20/02:30pm 24.4 20.5 -11.0 9 13.4 NNE 4 7 2 4 1017.8 - 0.0
20/02:00pm 23.7 18.4 -12.3 8 13.2 SSE 11 15 6 8 1018.2 - 0.0
20/01:30pm 22.8 18.4 -10.5 10 12.5 WSW 7 9 4 5 1018.7 - 0.0
20/01:00pm 22.9 17.7 -10.2 10 12.5 NE 11 17 6 9 1019.3 - 0.0
20/12:30pm 22.4 17.2 -11.3 9 12.4 ENE 11 17 6 9 1019.8 - 0.0
20/12:00pm 21.3 16.0 -11.8 10 11.9 E 11 19 6 10 1020.3 1019.8 0.0
20/11:30am 20.3 14.8 -9.6 12 11.1 E 13 19 7 10 1020.8 - 0.0
20/11:00am 19.3 13.0 -10.2 12 10.7 E 17 24 9 13 1021.4 - 0.0
20/10:30am 18.6 12.0 -9.2 14 10.2 E 19 28 10 15 1021.7 - 0.0
20/10:00am 16.9 10.1 -9.9 15 9.5 ENE 20 26 11 14 1021.8 - 0.0
20/09:30am 16.2 10.0 -8.8 17 9.0 E 17 24 9 13 1021.6 - 0.0
20/09:00am 16.1 9.6 -8.0 18 8.8 E 19 28 10 15 1021.4 1020.8 0.0
20/08:30am 14.1 8.7 -8.1 20 7.9 E 13 17 7 9 1021.2 - 0.0
20/08:00am 11.9 7.8 -6.4 27 6.6 ESE 7 9 4 5 1020.9 - 0.0
20/07:46am 10.1 6.0 -6.8 30 5.9 ESE 7 9 4 5 1020.7 - 0.0
20/07:30am 5.0 1.0 -7.5 40 4.0 ESE 6 7 3 4 1020.6 - 0.0
20/07:00am 4.7 1.3 -9.5 35 4.3 ESE 2 7 1 4 1020.3 - 0.0
20/06:30am 5.8 2.8 -9.4 32 4.7 CALM 0 0 0 0 1020.2 - 0.0
20/06:00am 4.7 1.7 -9.0 36 4.2 CALM 0 0 0 0 1019.8 1019.3 0.0
20/05:30am 5.6 1.4 -8.3 36 4.4 ESE 7 9 4 5 1019.5 - 0.0
20/05:00am 5.4 -0.1 -9.7 33 4.6 ESE 13 15 7 8 1019.3 - 0.0
20/04:31am 5.0 -0.5 -9.4 34 4.4 ESE 13 15 7 8 1019.3 - 0.0
20/04:30am 5.1 -0.4 -9.8 33 4.5 ESE 13 15 7 8 1019.3 - 0.0
20/04:12am 3.9 - - - - SE 9 9 5 5 1019.1 - 0.0
20/04:00am 4.4 - - - - ESE 6 9 3 5 1019.0 - 0.0
20/03:30am 6.1 2.5 -7.4 37 4.4 SE 4 6 2 3 1019.1 - 0.0
20/03:00am 9.4 4.2 -10.5 23 6.3 SSE 11 13 6 7 1019.3 1018.7 0.0
20/02:30am 8.3 3.3 -8.0 30 5.4 SSE 11 13 6 7 1019.4 - 0.0
20/02:00am 8.4 3.0 -8.3 30 5.5 S 13 15 7 8 1019.6 - 0.0
20/01:30am 8.4 3.0 -8.3 30 5.5 S 13 15 7 8 1019.8 - 0.0
20/01:00am 8.2 4.2 -5.9 36 4.9 S 7 11 4 6 1020.0 - 0.0
20/12:30am 10.6 6.7 -6.3 30 6.0 S 6 7 3 4 1020.2 - 0.0
20/12:00am 10.6 6.3 -9.3 24 6.6 S 7 9 4 5 1020.5 1019.9 0.0
 
Date/Time
EST
Temp
°C
App
Temp
°C
Dew
Point
Rel
Hum
%
Delta-T
°C
Wind Press
QNH
hPa
Press
MSL
hPa
Rain
since 9 am
mm
Dir
 
Spd
km/h
Gust
km/h
Spd
kts
Gust
kts
19/11:30pm 6.9 2.9 -6.0 39 4.4 S 7 9 4 5 1020.6 - 0.0
19/11:00pm 8.0 4.0 -5.8 37 4.8 SSW 7 9 4 5 1020.7 - 0.0
19/10:30pm 8.1 3.6 -6.5 35 5.0 S 9 11 5 6 1020.6 - 0.0
19/10:00pm 8.7 4.0 -5.0 37 4.9 S 11 11 6 6 1020.6 - 0.0
19/09:30pm 8.5 3.6 -7.1 32 5.3 S 11 13 6 7 1020.3 - 0.0
19/09:00pm 7.9 5.0 -7.8 32 5.2 CALM 0 0 0 0 1020.1 1019.6 0.0
19/08:30pm 8.6 5.7 -7.9 30 5.5 CALM 0 0 0 0 1019.9 - 0.0
19/08:00pm 9.4 5.7 -8.8 27 6.0 SSE 4 6 2 3 1019.8 - 0.0
19/07:30pm 11.4 7.2 -8.0 25 6.7 S 7 7 4 4 1019.7 - 0.0

Other Formats:

Comma delimited format used in spreadsheet applications
http://www.bom.gov.au/fwo/IDQ60801/IDQ60801.94332.axf

JavaScript Object Notation format (JSON) in row-major order
http://www.bom.gov.au/fwo/IDQ60801/IDQ60801.94332.json